Time;durP1;ratioP1;P1;durP2;ratioP2;P2;SDS_P1;SDS_P2;PMS_P1;PMS_P2;Temp;Humidity;BMP_temperature;BMP_pressure;BME280_temperature;BME280_humidity;BME280_pressure;Samples;Min_cycle;Max_cycle;Signal;HPM_P1;HPM_P2
2023/08/05 00:00:27;;;;;;;4.00;3.60;;;18.30;99.90;;;;;;2077921;28;20029;-71
2023/08/05 00:01:28;;;;;;;5.95;4.15;;;18.30;99.90;;;;;;2079974;28;20036;-70
2023/08/05 00:02:29;;;;;;;6.30;4.00;;;18.30;99.90;;;;;;2081414;28;20052;-71
2023/08/05 00:03:29;;;;;;;6.07;3.70;;;18.30;99.90;;;;;;2080472;28;20030;-71
2023/08/05 00:04:30;;;;;;;5.35;3.78;;;18.30;99.90;;;;;;2079463;28;20045;-71
2023/08/05 00:05:30;;;;;;;4.50;4.10;;;18.30;99.90;;;;;;2080704;28;20032;-70
2023/08/05 00:06:31;;;;;;;4.85;3.72;;;18.30;99.90;;;;;;2082193;28;20068;-70
2023/08/05 00:07:31;;;;;;;8.00;4.20;;;18.30;99.90;;;;;;2081123;28;20504;-71
2023/08/05 00:08:32;;;;;;;4.22;3.83;;;18.30;99.90;;;;;;2080241;28;20100;-71
2023/08/05 00:09:32;;;;;;;5.82;4.00;;;18.30;99.90;;;;;;2081577;28;20029;-71
2023/08/05 00:10:33;;;;;;;4.30;3.95;;;18.30;99.90;;;;;;2080705;28;20053;-70
2023/08/05 00:11:33;;;;;;;5.80;4.28;;;18.30;99.90;;;;;;2081249;28;20022;-71
2023/08/05 00:12:34;;;;;;;5.03;3.92;;;18.30;99.90;;;;;;2078924;28;20021;-70
2023/08/05 00:13:34;;;;;;;5.03;4.07;;;18.30;99.90;;;;;;2081682;28;20509;-71
2023/08/05 00:14:35;;;;;;;4.22;3.80;;;18.30;99.90;;;;;;2078743;28;20025;-70
2023/08/05 00:15:35;;;;;;;3.63;3.25;;;18.30;99.90;;;;;;2080640;28;20026;-70
2023/08/05 00:16:36;;;;;;;6.75;3.90;;;18.30;99.90;;;;;;2081101;28;20025;-70
2023/08/05 00:17:36;;;;;;;6.93;3.70;;;18.30;99.90;;;;;;2080785;28;20022;-70
2023/08/05 00:18:37;;;;;;;4.50;3.67;;;18.30;99.90;;;;;;2080297;28;20428;-70
2023/08/05 00:19:37;;;;;;;5.30;3.83;;;18.30;99.90;;;;;;2079982;28;20026;-70
2023/08/05 00:20:38;;;;;;;5.38;3.90;;;18.30;99.90;;;;;;2080379;28;20424;-70
2023/08/05 00:21:39;;;;;;;5.40;4.20;;;18.20;99.90;;;;;;2080344;28;20033;-70
2023/08/05 00:22:39;;;;;;;4.50;3.85;;;18.20;99.90;;;;;;2080074;28;20751;-70
2023/08/05 00:23:40;;;;;;;4.22;3.80;;;18.20;99.90;;;;;;2080454;28;20029;-71
2023/08/05 00:24:40;;;;;;;6.55;3.97;;;18.20;99.90;;;;;;2080299;28;20075;-71
2023/08/05 00:25:41;;;;;;;7.70;4.03;;;18.20;99.90;;;;;;2081265;28;20053;-71
2023/08/05 00:26:41;;;;;;;5.50;4.40;;;18.20;99.90;;;;;;2082236;28;20021;-71
2023/08/05 00:27:42;;;;;;;4.97;4.07;;;18.20;99.90;;;;;;2076698;28;20069;-70
2023/08/05 00:28:42;;;;;;;8.10;4.47;;;18.20;99.90;;;;;;2080890;28;20014;-70
2023/08/05 00:29:45;;;;;;;4.72;3.80;;;18.20;99.90;;;;;;2080474;28;20018;-71
2023/08/05 00:30:46;;;;;;;6.93;3.22;;;18.20;99.90;;;;;;2078624;28;20021;-71
2023/08/05 00:31:47;;;;;;;3.70;3.00;;;18.20;99.90;;;;;;2079347;28;20029;-71
2023/08/05 00:32:47;;;;;;;7.72;4.13;;;18.20;99.90;;;;;;2079076;28;20373;-71
2023/08/05 00:33:48;;;;;;;4.88;3.58;;;18.20;99.90;;;;;;2081038;28;20044;-70
2023/08/05 00:34:48;;;;;;;5.35;3.33;;;18.20;99.90;;;;;;2078811;28;20100;-71
2023/08/05 00:35:49;;;;;;;4.38;3.30;;;18.10;99.90;;;;;;2079639;28;20151;-71
2023/08/05 00:36:49;;;;;;;5.57;3.50;;;18.10;99.90;;;;;;2081616;28;20028;-71
2023/08/05 00:37:50;;;;;;;4.10;3.25;;;18.10;99.90;;;;;;2080396;28;20101;-70
2023/08/05 00:38:50;;;;;;;9.55;3.42;;;18.10;99.90;;;;;;2079256;28;20447;-71
2023/08/05 00:39:51;;;;;;;5.88;4.30;;;18.10;99.90;;;;;;2080682;28;20025;-70
2023/08/05 00:40:51;;;;;;;6.30;4.00;;;18.10;99.90;;;;;;2079999;28;20040;-71
2023/08/05 00:41:52;;;;;;;6.20;3.80;;;18.10;99.90;;;;;;2080654;28;20482;-70
2023/08/05 00:42:52;;;;;;;5.50;3.85;;;18.00;99.90;;;;;;2079413;28;20421;-70
2023/08/05 00:43:53;;;;;;;5.15;3.78;;;18.00;99.90;;;;;;2077792;28;20056;-71
2023/08/05 00:44:54;;;;;;;5.57;4.03;;;18.00;99.90;;;;;;2079493;28;20033;-70
2023/08/05 00:45:56;;;;;;;4.95;3.20;;;18.00;99.90;;;;;;2078743;28;20089;-70
2023/08/05 00:46:57;;;;;;;4.65;3.45;;;18.00;99.90;;;;;;2080847;28;20028;-70
2023/08/05 00:47:58;;;;;;;6.25;4.00;;;18.00;99.90;;;;;;2080362;28;20022;-70
2023/08/05 00:48:58;;;;;;;5.32;3.70;;;18.00;99.90;;;;;;2081965;28;20021;-71
2023/08/05 00:49:59;;;;;;;8.15;4.30;;;18.00;99.90;;;;;;2081007;28;20044;-70
2023/08/05 00:51:01;;;;;;;6.63;4.10;;;18.00;99.90;;;;;;2081412;28;20071;-70
2023/08/05 00:52:03;;;;;;;5.82;5.07;;;18.00;99.90;;;;;;2078209;28;20356;-70
2023/08/05 00:53:03;;;;;;;7.32;3.88;;;17.90;99.90;;;;;;2080274;28;20378;-70
2023/08/05 00:54:04;;;;;;;6.35;3.90;;;17.90;99.90;;;;;;2081190;28;20044;-71
2023/08/05 00:55:05;;;;;;;7.47;3.60;;;17.90;99.90;;;;;;2079612;28;20028;-71
2023/08/05 00:56:06;;;;;;;5.90;3.97;;;17.90;99.90;;;;;;2079066;28;20029;-71
2023/08/05 00:57:08;;;;;;;8.77;4.22;;;17.90;99.90;;;;;;2081565;28;20033;-71
2023/08/05 00:58:10;;;;;;;6.25;3.58;;;17.90;99.90;;;;;;2079877;28;20025;-70
2023/08/05 00:59:12;;;;;;;5.05;4.30;;;17.90;99.90;;;;;;2080741;28;20041;-71
2023/08/05 01:00:13;;;;;;;7.50;3.50;;;17.90;99.90;;;;;;2078519;28;20026;-71
2023/08/05 01:01:13;;;;;;;6.32;3.67;;;17.80;99.90;;;;;;2078582;28;20057;-71
2023/08/05 01:02:14;;;;;;;4.30;3.90;;;17.90;99.90;;;;;;2079162;28;20026;-71
2023/08/05 01:03:15;;;;;;;7.28;4.38;;;17.80;99.90;;;;;;2080030;28;20063;-71
2023/08/05 01:04:16;;;;;;;4.00;3.67;;;17.80;99.90;;;;;;2080132;28;20053;-71
2023/08/05 01:05:18;;;;;;;6.20;3.70;;;17.80;99.90;;;;;;2080512;28;20021;-71
2023/08/05 01:06:21;;;;;;;9.77;4.53;;;17.80;99.90;;;;;;2077231;28;20024;-71
2023/08/05 01:07:22;;;;;;;4.10;3.70;;;17.80;99.90;;;;;;2081000;28;20060;-71
2023/08/05 01:08:23;;;;;;;5.88;4.00;;;17.70;99.90;;;;;;2080662;28;20049;-71
2023/08/05 01:09:24;;;;;;;5.72;4.82;;;17.70;99.90;;;;;;2079717;28;20018;-71
2023/08/05 01:10:24;;;;;;;7.47;3.92;;;17.70;99.90;;;;;;2080747;28;20033;-71
2023/08/05 01:11:25;;;;;;;5.28;3.92;;;17.70;99.90;;;;;;2080595;28;20036;-71
2023/08/05 01:12:25;;;;;;;4.53;4.10;;;17.70;99.90;;;;;;2078234;28;20072;-71
2023/08/05 01:13:26;;;;;;;5.40;4.05;;;17.70;99.90;;;;;;2076667;28;20017;-71
2023/08/05 01:14:26;;;;;;;4.93;4.43;;;17.70;99.90;;;;;;2080311;28;20034;-71
2023/08/05 01:15:27;;;;;;;7.15;4.10;;;17.70;99.90;;;;;;2078241;28;20729;-71
2023/08/05 01:16:28;;;;;;;5.07;4.10;;;17.70;99.90;;;;;;2079069;28;20018;-71
2023/08/05 01:17:28;;;;;;;5.05;3.97;;;17.60;99.90;;;;;;2081455;28;20037;-71
2023/08/05 01:18:29;;;;;;;4.05;3.65;;;17.60;99.90;;;;;;2081495;28;20115;-71
2023/08/05 01:19:33;;;;;;;6.20;3.55;;;17.60;99.90;;;;;;2081211;28;20579;-71
2023/08/05 01:20:45;;;;;;;4.97;3.95;;;17.60;99.90;;;;;;2078658;28;21002;-71
2023/08/05 01:21:56;;;;;;;5.60;4.50;;;17.60;99.90;;;;;;2079903;28;20093;-71
2023/08/05 01:23:07;;;;;;;4.65;3.75;;;17.60;99.90;;;;;;2080075;28;20061;-71
2023/08/05 01:24:18;;;;;;;4.68;3.72;;;17.60;99.90;;;;;;2079679;28;20037;-71
2023/08/05 01:25:29;;;;;;;4.35;3.95;;;17.50;99.90;;;;;;2078421;28;20025;-71
2023/08/05 01:26:32;;;;;;;3.47;3.15;;;17.50;99.90;;;;;;2082171;28;20040;-71
2023/08/05 01:27:34;;;;;;;4.00;3.58;;;17.50;99.90;;;;;;2080923;28;20029;-71
2023/08/05 01:28:36;;;;;;;4.15;3.65;;;17.50;99.90;;;;;;2080351;28;20021;-71
2023/08/05 01:29:37;;;;;;;5.25;3.60;;;17.50;99.90;;;;;;2080735;28;20018;-71
2023/08/05 01:30:39;;;;;;;6.32;3.80;;;17.50;99.90;;;;;;2081469;28;20528;-71
2023/08/05 01:31:43;;;;;;;4.25;3.80;;;17.50;99.90;;;;;;2078205;28;20108;-71
2023/08/05 01:32:44;;;;;;;5.10;3.92;;;17.50;99.90;;;;;;2078619;28;20037;-72
2023/08/05 01:33:46;;;;;;;6.45;4.70;;;17.50;99.90;;;;;;2079583;28;20033;-72
2023/08/05 01:34:47;;;;;;;6.38;4.18;;;17.50;99.90;;;;;;2080989;28;20034;-71
2023/08/05 01:35:51;;;;;;;5.72;4.07;;;17.50;99.90;;;;;;2083225;28;20530;-71
2023/08/05 01:36:51;;;;;;;6.35;4.43;;;17.50;99.90;;;;;;2080390;28;20025;-71
2023/08/05 01:37:52;;;;;;;4.95;4.43;;;17.50;99.90;;;;;;2080261;28;20124;-71
2023/08/05 01:38:52;;;;;;;7.28;4.32;;;17.40;99.90;;;;;;2080140;28;20037;-71
2023/08/05 01:39:53;;;;;;;7.22;4.38;;;17.50;99.90;;;;;;2079460;28;20025;-71
2023/08/05 01:40:53;;;;;;;6.18;4.95;;;17.40;99.90;;;;;;2080836;28;20026;-71
2023/08/05 01:41:54;;;;;;;5.60;4.57;;;17.50;99.90;;;;;;2081247;28;20513;-71
2023/08/05 01:42:57;;;;;;;7.90;4.93;;;17.40;99.90;;;;;;2079395;28;20025;-71
2023/08/05 01:43:57;;;;;;;5.18;4.15;;;17.40;99.90;;;;;;2079814;28;20029;-71
2023/08/05 01:44:58;;;;;;;8.15;4.35;;;17.40;99.90;;;;;;2080869;28;20037;-71
2023/08/05 01:45:58;;;;;;;6.82;4.32;;;17.40;99.90;;;;;;2078472;28;20998;-71
2023/08/05 01:46:59;;;;;;;5.95;4.45;;;17.40;99.90;;;;;;2079491;28;20132;-71
2023/08/05 01:47:59;;;;;;;5.40;4.40;;;17.40;99.90;;;;;;2080087;28;20508;-71
2023/08/05 01:49:00;;;;;;;6.00;4.28;;;17.40;99.90;;;;;;2080693;28;20113;-71
2023/08/05 01:50:00;;;;;;;12.60;5.70;;;17.40;99.90;;;;;;2078382;28;20022;-71
2023/08/05 01:51:01;;;;;;;5.40;4.68;;;17.40;99.90;;;;;;2081937;28;20025;-71
2023/08/05 01:52:01;;;;;;;7.50;4.38;;;17.40;99.90;;;;;;2081009;28;20020;-71
2023/08/05 01:53:02;;;;;;;5.18;4.38;;;17.40;99.90;;;;;;2081979;28;20024;-71
2023/08/05 01:54:03;;;;;;;6.38;4.32;;;17.40;99.90;;;;;;2082368;28;20040;-71
2023/08/05 01:55:03;;;;;;;4.82;4.38;;;17.40;99.90;;;;;;2083566;28;20503;-71
2023/08/05 01:56:04;;;;;;;5.13;4.28;;;17.40;99.90;;;;;;2078709;28;20036;-71
2023/08/05 01:57:05;;;;;;;7.15;3.97;;;17.40;99.90;;;;;;2081137;28;20037;-71
2023/08/05 01:58:05;;;;;;;4.85;4.28;;;17.40;99.90;;;;;;2080045;28;20025;-71
2023/08/05 01:59:06;;;;;;;6.55;3.45;;;17.40;99.90;;;;;;2082030;28;20492;-71
2023/08/05 02:00:07;;;;;;;4.18;3.60;;;17.40;99.90;;;;;;2079026;28;20028;-71
2023/08/05 02:01:07;;;;;;;5.47;3.80;;;17.40;99.90;;;;;;2081380;28;20021;-71
2023/08/05 02:02:08;;;;;;;4.50;3.75;;;17.40;99.90;;;;;;2079585;28;20022;-71
2023/08/05 02:03:09;;;;;;;5.18;4.35;;;17.40;99.90;;;;;;2082245;28;20025;-71
2023/08/05 02:04:09;;;;;;;6.43;4.30;;;17.40;99.90;;;;;;2083068;28;20397;-71
2023/08/05 02:05:10;;;;;;;4.57;4.18;;;17.40;99.90;;;;;;2082801;28;20036;-71
2023/08/05 02:06:10;;;;;;;4.18;3.72;;;17.40;99.90;;;;;;2079566;28;20022;-71
2023/08/05 02:07:12;;;;;;;6.47;3.90;;;17.40;99.90;;;;;;2079297;28;20069;-71
2023/08/05 02:08:12;;;;;;;4.70;3.67;;;17.50;99.90;;;;;;2078260;28;20025;-71
2023/08/05 02:09:13;;;;;;;5.30;4.10;;;17.50;99.90;;;;;;2080919;28;20017;-71
2023/08/05 02:10:13;;;;;;;4.25;3.85;;;17.50;99.90;;;;;;2081023;28;20029;-71
2023/08/05 02:11:14;;;;;;;6.97;3.65;;;17.50;99.90;;;;;;2081214;28;20028;-71
2023/08/05 02:12:14;;;;;;;6.28;4.30;;;17.50;99.90;;;;;;2080082;28;20021;-71
2023/08/05 02:13:16;;;;;;;4.95;4.05;;;17.50;99.90;;;;;;2080506;28;20096;-71
2023/08/05 02:14:16;;;;;;;5.47;4.13;;;17.50;99.90;;;;;;2084803;28;20104;-71
2023/08/05 02:15:17;;;;;;;5.65;3.78;;;17.50;99.90;;;;;;2082279;28;20087;-71
2023/08/05 02:16:17;;;;;;;8.30;4.32;;;17.50;99.90;;;;;;2081553;28;20369;-71
2023/08/05 02:17:18;;;;;;;5.72;4.20;;;17.50;99.90;;;;;;2081522;28;20033;-71
2023/08/05 02:18:19;;;;;;;6.28;4.82;;;17.50;99.90;;;;;;2078984;28;20481;-71
2023/08/05 02:19:19;;;;;;;5.97;4.07;;;17.50;99.90;;;;;;2081048;28;20488;-71
2023/08/05 02:20:20;;;;;;;8.75;3.85;;;17.50;99.90;;;;;;2078451;28;20029;-71
2023/08/05 02:21:21;;;;;;;4.78;4.07;;;17.50;99.90;;;;;;2080081;28;20097;-71
2023/08/05 02:22:22;;;;;;;6.40;3.38;;;17.50;99.90;;;;;;2082638;28;20032;-71
2023/08/05 02:23:22;;;;;;;5.95;3.72;;;17.50;99.90;;;;;;2080586;28;20043;-71
2023/08/05 02:24:23;;;;;;;4.95;3.72;;;17.50;99.90;;;;;;2083028;28;20036;-71
2023/08/05 02:25:23;;;;;;;4.10;3.80;;;17.50;99.90;;;;;;2082356;28;20374;-71
2023/08/05 02:26:24;;;;;;;4.78;3.53;;;17.50;99.90;;;;;;2082840;28;20033;-71
2023/08/05 02:27:25;;;;;;;4.50;3.97;;;17.50;99.90;;;;;;2081745;28;20512;-71
2023/08/05 02:28:25;;;;;;;5.57;4.20;;;17.50;99.90;;;;;;2080557;28;20028;-71
2023/08/05 02:29:26;;;;;;;5.00;3.50;;;17.50;99.90;;;;;;2081047;28;20022;-71
2023/08/05 02:30:26;;;;;;;4.85;3.72;;;17.50;99.90;;;;;;2082397;28;20047;-71
2023/08/05 02:31:27;;;;;;;6.75;3.65;;;17.50;99.90;;;;;;2079433;28;20025;-71
2023/08/05 02:32:28;;;;;;;4.50;3.58;;;17.50;99.90;;;;;;2080547;28;20044;-71
2023/08/05 02:33:28;;;;;;;5.05;3.53;;;17.50;99.90;;;;;;2075494;28;20022;-71
2023/08/05 02:34:29;;;;;;;6.40;3.83;;;17.50;99.90;;;;;;2080476;28;20018;-71
2023/08/05 02:35:29;;;;;;;5.13;3.72;;;17.50;99.90;;;;;;2081445;28;20156;-71
2023/08/05 02:36:30;;;;;;;6.63;3.88;;;17.50;99.90;;;;;;2079926;28;20475;-71
2023/08/05 02:37:30;;;;;;;5.78;3.80;;;17.50;99.90;;;;;;2079308;28;20125;-71
2023/08/05 02:38:31;;;;;;;5.53;3.92;;;17.50;99.90;;;;;;2082629;28;20112;-71
2023/08/05 02:39:32;;;;;;;4.38;3.42;;;17.50;99.90;;;;;;2079416;28;20112;-71
2023/08/05 02:40:33;;;;;;;6.40;4.00;;;17.50;99.90;;;;;;2080671;28;20026;-71
2023/08/05 02:41:34;;;;;;;7.55;4.07;;;17.50;99.90;;;;;;2081169;28;20405;-71
2023/08/05 02:42:34;;;;;;;9.70;3.53;;;17.50;99.90;;;;;;2082114;28;20056;-71
2023/08/05 02:43:35;;;;;;;3.90;3.50;;;17.50;99.90;;;;;;2080972;28;20101;-71
2023/08/05 02:44:36;;;;;;;5.05;3.70;;;17.50;99.90;;;;;;2081421;28;20497;-71
2023/08/05 02:45:36;;;;;;;5.38;3.80;;;17.50;99.90;;;;;;2079099;28;20567;-71
2023/08/05 02:46:37;;;;;;;4.25;3.85;;;17.50;99.90;;;;;;2083396;28;20032;-71
2023/08/05 02:47:37;;;;;;;4.43;3.80;;;17.50;99.90;;;;;;2082035;28;20029;-71
2023/08/05 02:48:38;;;;;;;3.88;3.33;;;17.50;99.90;;;;;;2079584;28;20033;-71
2023/08/05 02:49:38;;;;;;;4.68;3.92;;;17.50;99.90;;;;;;2080514;28;20025;-71
2023/08/05 02:50:39;;;;;;;4.50;4.07;;;17.50;99.90;;;;;;2080697;28;20028;-71
2023/08/05 02:51:39;;;;;;;6.38;3.92;;;17.50;99.90;;;;;;2080992;28;20095;-71
2023/08/05 02:52:40;;;;;;;5.18;3.83;;;17.50;99.90;;;;;;2080814;28;20025;-71
2023/08/05 02:53:40;;;;;;;4.25;3.40;;;17.50;99.90;;;;;;2079698;28;20524;-71
2023/08/05 02:54:41;;;;;;;4.10;3.67;;;17.50;99.90;;;;;;2080571;28;20026;-71
2023/08/05 02:55:41;;;;;;;5.95;4.30;;;17.50;99.90;;;;;;2080833;28;20083;-71
2023/08/05 02:56:42;;;;;;;4.30;3.70;;;17.50;99.90;;;;;;2082577;28;20339;-71
2023/08/05 02:57:43;;;;;;;5.88;4.20;;;17.50;99.90;;;;;;2080729;28;20121;-71
2023/08/05 02:58:43;;;;;;;4.50;3.53;;;17.50;99.90;;;;;;2079920;28;20033;-71
2023/08/05 02:59:44;;;;;;;11.18;4.65;;;17.50;99.90;;;;;;2079586;28;20083;-71
2023/08/05 03:00:46;;;;;;;4.70;4.07;;;17.50;99.90;;;;;;2080253;28;20103;-71
2023/08/05 03:01:47;;;;;;;4.00;3.60;;;17.50;99.90;;;;;;2081757;28;20037;-71
2023/08/05 03:02:47;;;;;;;8.98;3.75;;;17.50;99.90;;;;;;2079119;28;20033;-71
2023/08/05 03:03:48;;;;;;;7.13;4.28;;;17.50;99.90;;;;;;2079345;28;20034;-71
2023/08/05 03:04:48;;;;;;;4.35;3.92;;;17.50;99.90;;;;;;2081383;28;20057;-71
2023/08/05 03:05:49;;;;;;;5.25;2.92;;;17.50;99.90;;;;;;2079982;28;20456;-71
2023/08/05 03:06:49;;;;;;;6.97;4.07;;;17.50;99.90;;;;;;2081284;28;20083;-71
2023/08/05 03:07:50;;;;;;;5.05;3.45;;;17.50;99.90;;;;;;2082173;28;20167;-71
2023/08/05 03:08:50;;;;;;;4.85;3.95;;;17.50;99.90;;;;;;2079801;28;20123;-71
2023/08/05 03:09:51;;;;;;;5.30;4.07;;;17.50;99.90;;;;;;2081309;28;20033;-71
2023/08/05 03:11:01;;;;;;;3.97;3.25;;;17.50;99.90;;;;;;2080331;28;20109;-71
2023/08/05 03:12:06;;;;;;;5.43;3.33;;;17.50;99.90;;;;;;2079431;28;20032;-71
2023/08/05 03:13:07;;;;;;;6.30;4.18;;;17.40;99.90;;;;;;2081368;28;20045;-71
2023/08/05 03:14:08;;;;;;;4.05;3.65;;;17.50;99.90;;;;;;2079869;28;20025;-71
2023/08/05 03:15:09;;;;;;;6.43;3.55;;;17.40;99.90;;;;;;2080049;28;20026;-71
2023/08/05 03:16:11;;;;;;;6.97;4.15;;;17.40;99.90;;;;;;2080173;28;20022;-71
2023/08/05 03:17:11;;;;;;;6.28;4.45;;;17.50;99.90;;;;;;2082296;28;20025;-71
2023/08/05 03:18:12;;;;;;;6.70;4.05;;;17.50;99.90;;;;;;2080596;28;20033;-71
2023/08/05 03:19:12;;;;;;;4.90;4.20;;;17.50;99.90;;;;;;2081251;28;20366;-71
2023/08/05 03:20:27;;;;;;;5.05;3.33;;;17.50;99.90;;;;;;2078045;28;20101;-71
2023/08/05 03:21:28;;;;;;;4.38;3.90;;;17.40;99.90;;;;;;2081216;28;20022;-71
2023/08/05 03:22:28;;;;;;;4.57;3.50;;;17.50;99.90;;;;;;2079501;28;20094;-71
2023/08/05 03:23:29;;;;;;;3.90;3.60;;;17.40;99.90;;;;;;2079625;28;20464;-71
2023/08/05 03:24:29;;;;;;;6.47;4.25;;;17.50;99.90;;;;;;2081964;28;20028;-71
2023/08/05 03:25:30;;;;;;;8.43;4.13;;;17.50;99.90;;;;;;2081314;28;20028;-71
2023/08/05 03:26:30;;;;;;;6.20;3.20;;;17.40;99.90;;;;;;2081851;28;20532;-71
2023/08/05 03:27:31;;;;;;;3.75;3.33;;;17.40;99.90;;;;;;2080115;28;20121;-71
2023/08/05 03:28:32;;;;;;;4.28;3.63;;;17.40;99.90;;;;;;2080326;28;20026;-71
2023/08/05 03:29:32;;;;;;;4.85;3.65;;;17.40;99.90;;;;;;2081435;28;20060;-71
2023/08/05 03:30:33;;;;;;;6.05;3.70;;;17.40;99.90;;;;;;2079874;28;20029;-71
2023/08/05 03:31:33;;;;;;;5.47;3.58;;;17.40;99.90;;;;;;2079068;28;20032;-71
2023/08/05 03:32:34;;;;;;;11.13;3.63;;;17.50;99.90;;;;;;2080169;28;20108;-71
2023/08/05 03:33:34;;;;;;;3.60;3.30;;;17.50;99.90;;;;;;2081796;28;20025;-71
2023/08/05 03:34:35;;;;;;;5.80;3.20;;;17.40;99.90;;;;;;2082074;28;20418;-71
2023/08/05 03:35:36;;;;;;;4.45;3.60;;;17.40;99.90;;;;;;2080189;28;20025;-71
2023/08/05 03:36:36;;;;;;;6.13;3.90;;;17.40;99.90;;;;;;2076933;28;20021;-71
2023/08/05 03:37:37;;;;;;;5.72;4.45;;;17.40;99.90;;;;;;2078080;28;20035;-71
2023/08/05 03:38:37;;;;;;;4.68;4.18;;;17.50;99.90;;;;;;2080891;28;20025;-71
2023/08/05 03:39:38;;;;;;;6.97;4.63;;;17.40;99.90;;;;;;2081828;28;20022;-71
2023/08/05 03:40:38;;;;;;;5.65;4.38;;;17.50;99.90;;;;;;2080328;28;20053;-71
2023/08/05 03:41:40;;;;;;;8.57;3.67;;;17.40;99.90;;;;;;2082453;28;20115;-71
2023/08/05 03:42:41;;;;;;;7.10;3.78;;;17.40;99.90;;;;;;2084107;28;20022;-71
2023/08/05 03:43:41;;;;;;;3.83;3.35;;;17.40;99.90;;;;;;2081325;28;20116;-71
2023/08/05 03:44:42;;;;;;;4.32;3.92;;;17.50;99.90;;;;;;2080719;28;20039;-71
2023/08/05 03:45:50;;;;;;;3.85;3.50;;;17.40;99.90;;;;;;2078978;28;20024;-71
2023/08/05 03:46:51;;;;;;;6.13;3.92;;;17.50;99.90;;;;;;2080091;28;20587;-71
2023/08/05 03:47:53;;;;;;;5.05;4.00;;;17.40;99.90;;;;;;2080801;28;20029;-71
2023/08/05 03:48:55;;;;;;;8.27;3.90;;;17.40;99.90;;;;;;2079587;28;20203;-71
2023/08/05 03:49:56;;;;;;;3.88;3.53;;;17.50;99.90;;;;;;2080540;28;20029;-71
2023/08/05 03:50:56;;;;;;;6.28;4.10;;;17.40;99.90;;;;;;2082496;28;20037;-71
2023/08/05 03:51:57;;;;;;;5.22;4.03;;;17.40;99.90;;;;;;2076708;28;20108;-71
2023/08/05 03:52:58;;;;;;;4.55;3.85;;;17.50;99.90;;;;;;2079806;28;20025;-71
2023/08/05 03:53:58;;;;;;;4.43;3.90;;;17.50;99.90;;;;;;2080288;28;20025;-71
2023/08/05 03:54:59;;;;;;;4.55;3.63;;;17.40;99.90;;;;;;2080600;28;20028;-71
2023/08/05 03:55:59;;;;;;;7.82;4.65;;;17.40;99.90;;;;;;2078246;28;20446;-71
2023/08/05 03:57:02;;;;;;;3.90;3.45;;;17.40;99.90;;;;;;2079730;28;20436;-71
2023/08/05 03:58:03;;;;;;;6.20;3.78;;;17.40;99.90;;;;;;2079389;28;20136;-71
2023/08/05 03:59:04;;;;;;;6.75;4.43;;;17.40;99.90;;;;;;2076381;28;20095;-71
2023/08/05 04:00:05;;;;;;;7.85;3.90;;;17.40;99.90;;;;;;2081551;28;20072;-71
2023/08/05 04:01:06;;;;;;;6.03;4.03;;;17.40;99.90;;;;;;2082303;28;20036;-71
2023/08/05 04:02:07;;;;;;;6.95;4.25;;;17.40;99.90;;;;;;2080237;28;20893;-71
2023/08/05 04:03:08;;;;;;;5.80;4.43;;;17.40;99.90;;;;;;2082616;28;20099;-71
2023/08/05 04:04:08;;;;;;;6.30;3.90;;;17.40;99.90;;;;;;2081624;28;20976;-71
2023/08/05 04:05:10;;;;;;;4.75;3.67;;;17.40;99.90;;;;;;2081980;28;20109;-71
2023/08/05 04:06:13;;;;;;;5.45;4.15;;;17.40;99.90;;;;;;2080128;28;20129;-71
2023/08/05 04:07:14;;;;;;;6.75;4.32;;;17.40;99.90;;;;;;2081226;28;20033;-71
2023/08/05 04:08:16;;;;;;;6.03;3.88;;;17.40;99.90;;;;;;2080035;28;20045;-71
2023/08/05 04:09:18;;;;;;;7.55;5.07;;;17.40;99.90;;;;;;2079001;28;20070;-71
2023/08/05 04:10:22;;;;;;;6.97;4.30;;;17.40;99.90;;;;;;2079014;28;20051;-71
2023/08/05 04:11:22;;;;;;;6.72;4.43;;;17.40;99.90;;;;;;2080850;28;20036;-71
2023/08/05 04:12:23;;;;;;;6.63;3.97;;;17.40;99.90;;;;;;2079236;28;20013;-71
2023/08/05 04:13:26;;;;;;;5.28;3.65;;;17.40;99.90;;;;;;2080018;28;20071;-71
2023/08/05 04:14:26;;;;;;;5.45;3.92;;;17.40;99.90;;;;;;2081236;28;20018;-71
2023/08/05 04:15:28;;;;;;;8.35;4.38;;;17.40;99.90;;;;;;2081803;28;20022;-71
2023/08/05 04:16:29;;;;;;;6.05;4.25;;;17.40;99.90;;;;;;2081294;28;20519;-71
2023/08/05 04:17:30;;;;;;;6.32;4.07;;;17.40;99.90;;;;;;2078460;28;20032;-71
2023/08/05 04:18:34;;;;;;;4.68;3.40;;;17.50;99.90;;;;;;2079203;28;20032;-71
2023/08/05 04:19:36;;;;;;;7.50;3.90;;;17.40;99.90;;;;;;2079713;28;20033;-71
2023/08/05 04:20:38;;;;;;;5.63;3.35;;;17.50;99.90;;;;;;2078868;28;20017;-71
2023/08/05 04:21:46;;;;;;;7.20;3.92;;;17.50;99.90;;;;;;2081790;28;20053;-71
2023/08/05 04:22:49;;;;;;;5.72;3.72;;;17.50;99.90;;;;;;2079417;28;20029;-71
2023/08/05 04:23:49;;;;;;;4.80;3.10;;;17.40;99.90;;;;;;2079558;28;20025;-71
2023/08/05 04:24:51;;;;;;;6.35;3.92;;;17.40;99.90;;;;;;2080600;28;20037;-71
2023/08/05 04:25:52;;;;;;;6.28;3.63;;;17.50;99.90;;;;;;2081158;28;20032;-71
2023/08/05 04:26:54;;;;;;;4.20;3.83;;;17.50;99.90;;;;;;2081503;28;20119;-71
2023/08/05 04:27:56;;;;;;;5.30;4.00;;;17.40;99.90;;;;;;2078925;28;20087;-71
2023/08/05 04:28:57;;;;;;;5.70;4.03;;;17.50;99.90;;;;;;2081311;28;20032;-71
2023/08/05 04:29:58;;;;;;;7.22;4.40;;;17.40;99.90;;;;;;2079053;28;20032;-71
2023/08/05 04:30:58;;;;;;;6.13;3.72;;;17.50;99.90;;;;;;2078221;28;20120;-71
2023/08/05 04:31:59;;;;;;;6.60;4.47;;;17.50;99.90;;;;;;2079414;28;20022;-71
2023/08/05 04:33:00;;;;;;;4.32;3.92;;;17.50;99.90;;;;;;2072336;28;20030;-71
2023/08/05 04:34:00;;;;;;;6.40;4.40;;;17.50;99.90;;;;;;2078114;28;20037;-71
2023/08/05 04:35:01;;;;;;;5.88;3.95;;;17.50;99.90;;;;;;2082168;28;20465;-71
2023/08/05 04:36:01;;;;;;;7.22;4.47;;;17.50;99.90;;;;;;2079003;28;20025;-71
2023/08/05 04:37:22;;;;;;;7.20;4.90;;;17.50;99.90;;;;;;2081284;28;20029;-71
2023/08/05 04:38:22;;;;;;;6.28;4.10;;;17.50;99.90;;;;;;2080348;28;20176;-71
2023/08/05 04:39:23;;;;;;;6.53;4.28;;;17.50;99.90;;;;;;2079397;28;20025;-71
2023/08/05 04:40:23;;;;;;;5.93;4.50;;;17.50;99.90;;;;;;2078879;28;20025;-71
2023/08/05 04:41:24;;;;;;;8.05;4.82;;;17.50;99.90;;;;;;2080620;28;20088;-71
2023/08/05 04:42:24;;;;;;;7.10;4.93;;;17.50;99.90;;;;;;2078752;28;20037;-71
2023/08/05 04:43:25;;;;;;;5.03;4.60;;;17.50;99.90;;;;;;2081298;28;20025;-71
2023/08/05 04:44:25;;;;;;;6.63;4.70;;;17.50;99.90;;;;;;2080005;28;20040;-71
2023/08/05 04:45:26;;;;;;;7.63;4.78;;;17.50;99.90;;;;;;2079997;28;20036;-71
2023/08/05 04:46:26;;;;;;;6.65;4.38;;;17.50;99.90;;;;;;2081746;28;20426;-71
2023/08/05 04:47:27;;;;;;;9.43;5.18;;;17.50;99.90;;;;;;2079289;28;20147;-71
2023/08/05 04:48:28;;;;;;;8.32;4.10;;;17.50;99.90;;;;;;2080670;28;20432;-71
2023/08/05 04:49:28;;;;;;;7.47;4.18;;;17.50;99.90;;;;;;2079540;28;20032;-71
2023/08/05 04:50:29;;;;;;;6.57;4.50;;;17.50;99.90;;;;;;2078012;28;20726;-71
2023/08/05 04:51:29;;;;;;;8.13;4.95;;;17.50;99.90;;;;;;2080399;28;20177;-71
2023/08/05 04:52:30;;;;;;;4.72;4.30;;;17.60;99.90;;;;;;2078880;28;20079;-71
2023/08/05 04:53:30;;;;;;;5.55;4.43;;;17.50;99.90;;;;;;2078791;28;20017;-71
2023/08/05 04:54:41;;;;;;;9.70;4.53;;;17.60;99.90;;;;;;2079748;28;20025;-71
2023/08/05 04:55:42;;;;;;;6.93;5.32;;;17.60;99.90;;;;;;2077500;28;20156;-71
2023/08/05 04:56:42;;;;;;;6.82;5.00;;;17.50;99.90;;;;;;2079562;28;20028;-71
2023/08/05 04:57:43;;;;;;;8.55;5.45;;;17.60;99.90;;;;;;2080123;28;20563;-71
2023/08/05 04:58:44;;;;;;;5.90;5.25;;;17.60;99.90;;;;;;2080631;28;20038;-71
2023/08/05 04:59:46;;;;;;;12.80;5.22;;;17.60;99.90;;;;;;2079103;28;20025;-71
2023/08/05 05:00:47;;;;;;;8.10;5.05;;;17.60;99.90;;;;;;2079955;28;20040;-71
2023/08/05 05:01:47;;;;;;;6.65;4.43;;;17.60;99.90;;;;;;2078799;28;20124;-71
2023/08/05 05:02:48;;;;;;;6.38;4.10;;;17.60;99.90;;;;;;2080994;28;20501;-71
2023/08/05 05:03:51;;;;;;;5.35;4.10;;;17.70;99.90;;;;;;2081156;28;20033;-71
2023/08/05 05:04:52;;;;;;;5.82;5.03;;;17.70;99.90;;;;;;2081460;28;20405;-71
2023/08/05 05:05:52;;;;;;;9.10;5.63;;;17.70;99.90;;;;;;2080221;28;20025;-71
2023/08/05 05:06:53;;;;;;;4.93;4.47;;;17.80;99.90;;;;;;2078398;28;20041;-71
2023/08/05 05:07:53;;;;;;;5.78;5.10;;;17.80;99.90;;;;;;2082074;28;20036;-71
2023/08/05 05:08:54;;;;;;;8.43;4.90;;;17.80;99.90;;;;;;2079756;28;20021;-71
2023/08/05 05:09:54;;;;;;;6.50;4.65;;;17.80;99.90;;;;;;2078615;28;20486;-71
2023/08/05 05:10:55;;;;;;;9.18;5.50;;;17.90;99.90;;;;;;2079411;28;20030;-71
2023/08/05 05:11:55;;;;;;;7.20;5.13;;;17.90;99.90;;;;;;2078978;28;20029;-71
2023/08/05 05:12:58;;;;;;;8.57;5.15;;;17.90;99.90;;;;;;2082720;28;20045;-71
2023/08/05 05:13:58;;;;;;;7.22;5.68;;;18.00;99.90;;;;;;2079949;28;20108;-71
2023/08/05 05:14:59;;;;;;;8.90;5.28;;;17.90;99.90;;;;;;2079990;28;20026;-71
2023/08/05 05:16:03;;;;;;;10.85;5.07;;;18.00;99.90;;;;;;2080953;28;20075;-71
2023/08/05 05:17:03;;;;;;;10.27;5.53;;;18.00;99.90;;;;;;2080664;28;20080;-71
2023/08/05 05:18:04;;;;;;;6.28;5.07;;;18.00;99.90;;;;;;2078272;28;20070;-71